Map

Track Data

SID SEASON NUMBER BASIN SUBBASIN NAME ISO_TIME NATURE LAT LON WMO_WIND WMO_PRES WMO_AGENCY TRACK_TYPE DIST2LAND LANDFALL IFLAG USA_AGENCY USA_ATCF_ID USA_LAT USA_LON USA_RECORD USA_STATUS USA_WIND USA_PRES USA_SSHS USA_R34_NE USA_R34_SE USA_R34_SW USA_R34_NW USA_R50_NE USA_R50_SE USA_R50_SW USA_R50_NW USA_R64_NE USA_R64_SE USA_R64_SW USA_R64_NW USA_POCI USA_ROCI USA_RMW USA_EYE TOKYO_LAT TOKYO_LON TOKYO_GRADE TOKYO_WIND TOKYO_PRES TOKYO_R50_DIR TOKYO_R50_LONG TOKYO_R50_SHORT TOKYO_R30_DIR TOKYO_R30_LONG TOKYO_R30_SHORT TOKYO_LAND CMA_LAT CMA_LON CMA_CAT CMA_WIND CMA_PRES HKO_LAT HKO_LON HKO_CAT HKO_WIND HKO_PRES NEWDELHI_LAT NEWDELHI_LON NEWDELHI_GRADE NEWDELHI_WIND NEWDELHI_PRES NEWDELHI_CI NEWDELHI_DP NEWDELHI_POCI REUNION_LAT REUNION_LON REUNION_TYPE REUNION_WIND REUNION_PRES REUNION_TNUM REUNION_CI REUNION_RMW REUNION_R34_NE REUNION_R34_SE REUNION_R34_SW REUNION_R34_NW REUNION_R50_NE REUNION_R50_SE REUNION_R50_SW REUNION_R50_NW REUNION_R64_NE REUNION_R64_SE REUNION_R64_SW REUNION_R64_NW BOM_LAT BOM_LON BOM_TYPE BOM_WIND BOM_PRES BOM_TNUM BOM_CI BOM_RMW BOM_R34_NE BOM_R34_SE BOM_R34_SW BOM_R34_NW BOM_R50_NE BOM_R50_SE BOM_R50_SW BOM_R50_NW BOM_R64_NE BOM_R64_SE BOM_R64_SW BOM_R64_NW BOM_ROCI BOM_POCI BOM_EYE BOM_POS_METHOD BOM_PRES_METHOD NADI_LAT NADI_LON NADI_CAT NADI_WIND NADI_PRES WELLINGTON_LAT WELLINGTON_LON WELLINGTON_WIND WELLINGTON_PRES DS824_LAT DS824_LON DS824_STAGE DS824_WIND DS824_PRES TD9636_LAT TD9636_LON TD9636_STAGE TD9636_WIND TD9636_PRES TD9635_LAT TD9635_LON TD9635_WIND TD9635_PRES TD9635_ROCI NEUMANN_LAT NEUMANN_LON NEUMANN_CLASS NEUMANN_WIND NEUMANN_PRES MLC_LAT MLC_LON MLC_CLASS MLC_WIND MLC_PRES USA_GUST BOM_GUST BOM_GUST_PER REUNION_GUST REUNION_GUST_PER USA_SEAHGT USA_SEARAD_NE USA_SEARAD_SE USA_SEARAD_SW USA_SEARAD_NW STORM_SPEED STORM_DIR
1925055S18153 1925 13 SP EA NOT_NAMED 1925-02-23 12:00:00 NR -17.6000 152.700 main 509 502 __________O___ -1 -17.6000 152.700 7 2 194
1925055S18153 1925 13 SP EA NOT_NAMED 1925-02-23 15:00:00 NR -17.7150 152.656 main 502 487 __________P___ -1 -17.7150 152.656 7 3 209
1925055S18153 1925 13 SP EA NOT_NAMED 1925-02-23 18:00:00 NR -17.8240 152.569 main 487 463 __________P___ -1 -17.8240 152.569 7 3 230
1925055S18153 1925 13 SP EA NOT_NAMED 1925-02-23 21:00:00 NR -17.9211 152.398 main 463 431 __________P___ -1 -17.9211 152.398 7 5 248
1925055S18153 1925 13 SP EA NOT_NAMED 1925-02-24 00:00:00 NR -18.0000 152.100 main 431 398 __________O___ -1 -18.0000 152.100 7 7 260
1925055S18153 1925 13 SP EA NOT_NAMED 1925-02-24 03:00:00 NR -18.0509 151.649 main 383 344 __________P___ -1 -18.0509 151.649 7 10 267
1925055S18153 1925 13 SP EA NOT_NAMED 1925-02-24 06:00:00 NR -18.0513 151.091 main 344 313 __________P___ -1 -18.0513 151.091 7 11 274
1925055S18153 1925 13 SP EA NOT_NAMED 1925-02-24 09:00:00 NR -17.9759 150.487 main 313 295 __________P___ -1 -17.9759 150.487 7 12 283
1925055S18153 1925 13 SP EA NOT_NAMED 1925-02-24 12:00:00 NR -17.8000 149.900 main 298 292 __________O___ -1 -17.8000 149.900 7 12 297
1925055S18153 1925 13 SP EA NOT_NAMED 1925-02-24 15:00:00 NR -17.4474 149.403 main 307 300 __________P___ -1 -17.4474 149.403 7 12 311
1925055S18153 1925 13 SP EA NOT_NAMED 1925-02-24 18:00:00 NR -17.0071 148.938 main 300 266 __________P___ -1 -17.0071 148.938 7 12 316
1925055S18153 1925 13 SP EA NOT_NAMED 1925-02-24 21:00:00 NR -16.5632 148.504 main 270 270 __________P___ -1 -16.5632 148.504 7 4 12
1925055S18153 1925 13 SP EA NOT_NAMED 1925-02-24 23:00:00 NR -16.6855 149.005 bom main 318 328 ______O___P___ -1 -18.2000 152.100 -16.3069 148.231 7 25 113
1925055S18153 1925 13 SP EA NOT_NAMED 1925-02-25 00:00:00 TS -17.0670 149.722 main 353 345 ______P__OO___ -1 -18.2346 151.878 -18.2000 151.900 TC -16.2000 148.100 7 13 128
1925055S18153 1925 13 SP EA NOT_NAMED 1925-02-25 03:00:00 TS -17.2030 149.694 main 345 340 ______P__PP___ -1 -18.3017 151.217 -17.9555 151.345 TC -16.0027 147.726 7 4 161
1925055S18153 1925 13 SP EA NOT_NAMED 1925-02-25 04:00:00 TS -17.3323 149.810 bom main 340 330 ______O__PP___ -1 -18.3000 151.000 -17.8736 151.160 TC -15.9587 147.608 7 3 232
1925055S18153 1925 13 SP EA NOT_NAMED 1925-02-25 06:00:00 TS -17.2837 149.582 main 330 310 ______P__PP___ -1 -18.2424 150.577 -17.7093 150.792 TC -15.8994 147.378 7 9 288
1925055S18153 1925 13 SP EA NOT_NAMED 1925-02-25 09:00:00 TS -17.1110 149.094 bom main 313 281 ______O__PP___ -1 -18.0000 150.000 -17.4614 150.239 TC -15.8715 147.041 7 10 294
1925055S18153 1925 13 SP EA NOT_NAMED 1925-02-25 12:00:00 TS -16.8772 148.647 main 271 240 ______P__PO___ -1 -17.5197 149.553 -17.2120 149.688 TC -15.9000 146.700 7 10 300
1925055S18153 1925 13 SP EA NOT_NAMED 1925-02-25 15:00:00 TS -16.6240 148.202 main 240 230 ______P__PP___ -1 -16.9614 149.147 -16.9610 149.139 TC -15.9497 146.320 7 10 300
1925055S18153 1925 13 SP EA NOT_NAMED 1925-02-25 16:00:00 TS -16.5517 148.049 bom main 221 207 ______O__PP___ -1 -16.8000 149.000 -16.8771 148.956 TC -15.9780 146.192 7 10 292
1925055S18153 1925 13 SP EA NOT_NAMED 1925-02-25 18:00:00 TS -16.4387 147.728 main 203 168 ______P__PP___ -1 -16.5599 148.658 -16.7087 148.591 TC -16.0475 145.936 7 10 287
1925055S18153 1925 13 SP EA NOT_NAMED 1925-02-25 21:00:00 TS -16.3108 147.233 main 159 132 ______P__PP___ -1 -16.3058 148.096 -16.4550 148.045 TC -16.1716 145.558 7 10 284
1925055S18153 1925 13 SP EA NOT_NAMED 1925-02-25 23:00:00 TS -16.2477 146.899 992 bom main 139 131 ______O__PP___ -1 -16.2000 147.700 992 4 -16.2851 147.681 TC -16.2581 145.316 7 10 281
1925055S18153 1925 13 SP EA NOT_NAMED 1925-02-26 00:00:00 TS -16.2174 146.735 main 123 74 ______P__OO___ -1 -16.1522 147.504 -16.2000 147.500 TC 45 992 -16.3000 145.200 7 10 269
1925055S18153 1925 13 SP EA NOT_NAMED 1925-02-26 03:00:00 TS -16.2580 146.201 main 74 21 ______P__PP___ -1 -16.0797 146.897 -16.2825 146.827 TC -16.4119 144.878 7 10 264
1925055S18153 1925 13 SP EA NOT_NAMED 1925-02-26 06:00:00 TS -16.3261 145.666 main 21 0 ______P__PP___ -1 -16.0934 146.267 -16.3629 146.154 TC -16.5221 144.578 7 10 262
1925055S18153 1925 13 SP EA NOT_NAMED 1925-02-26 09:00:00 TS -16.4098 145.129 main 0 0 ______P__PP___ -1 -16.1668 145.619 -16.4412 145.479 TC -16.6213 144.288 7 10 261
1925055S18153 1925 13 SP EA NOT_NAMED 1925-02-26 10:00:00 TS -16.4390 144.949 bom main 0 0 ______O__PP___ -1 -16.2000 145.400 -16.4668 145.254 TC -16.6503 144.192 7 10 260
1925055S18153 1925 13 SP EA NOT_NAMED 1925-02-26 12:00:00 TS -16.4990 144.609 main 0 0 ______P__PO___ -1 -16.2797 145.024 -16.5173 144.804 TC -16.7000 144.000 7 10 259
1925055S18153 1925 13 SP EA NOT_NAMED 1925-02-26 15:00:00 TS -16.5936 144.094 main 0 0 ______P__PP___ -1 -16.4389 144.457 -16.5913 144.128 TC -16.7505 143.696 7 10 260
1925055S18153 1925 13 SP EA NOT_NAMED 1925-02-26 18:00:00 TS -16.6839 143.559 main 0 0 ______P__PP___ -1 -16.6087 143.833 -16.6631 143.452 TC -16.7799 143.392 7 11 261
1925055S18153 1925 13 SP EA NOT_NAMED 1925-02-26 21:00:00 TS -16.7603 143.005 main 0 0 ______P__PP___ -1 -16.7469 143.090 -16.7327 142.776 TC -16.7943 143.093 7 11 263
1925055S18153 1925 13 SP EA NOT_NAMED 1925-02-26 23:00:00 TS -16.7950 142.624 bom main 0 0 ______O__PP___ -1 -16.8000 142.500 -16.7778 142.325 TC -16.7987 142.897 7 10 265
1925055S18153 1925 13 SP EA NOT_NAMED 1925-02-27 00:00:00 TS -16.8072 142.475 main 0 0 ______P__OO___ -1 -16.8193 142.166 -16.8000 142.100 TC -16.8000 142.800 7 8 268
1925055S18153 1925 13 SP EA NOT_NAMED 1925-02-27 03:00:00 NR -16.8100 142.053 bom main 0 0 ______O___P___ -1 -16.8000 141.100 TC -16.8150 142.530 7 6 271
1925055S18153 1925 13 SP EA NOT_NAMED 1925-02-27 05:00:00 NR -16.7966 141.963 bom main 0 0 ______O___P___ -1 -16.7000 140.400 TC -16.8208 142.354 7 4 93
1925055S18153 1925 13 SP EA NOT_NAMED 1925-02-27 06:00:00 NR -16.8221 142.265 main 0 0 __________P___ -1 TC -16.8221 142.265 7 1 123
1925055S18153 1925 13 SP EA NOT_NAMED 1925-02-27 09:00:00 NR -16.8181 141.993 main 0 0 __________P___ -1 TC -16.8181 141.993 7 5 272
1925055S18153 1925 13 SP EA NOT_NAMED 1925-02-27 12:00:00 NR -16.8000 141.700 main 0 0 __________O___ -1 TC -16.8000 141.700 7 6 275
1925055S18153 1925 13 SP EA NOT_NAMED 1925-02-27 15:00:00 NR -16.7657 141.378 main 0 0 __________P___ -1 TC -16.7657 141.378 7 6 277
1925055S18153 1925 13 SP EA NOT_NAMED 1925-02-27 18:00:00 NR -16.7182 141.032 main 21 21 __________P___ -1 TC -16.7182 141.032 7 7 279
1925055S18153 1925 13 SP EA NOT_NAMED 1925-02-27 21:00:00 NR -16.6616 140.670 main 46 46 __________P___ -1 TC -16.6616 140.670 7 7 280
1925055S18153 1925 13 SP EA NOT_NAMED 1925-02-28 00:00:00 NR -16.6000 140.300 main 86 __________O___ -1 -16.6000 140.300 7 7 280

Digital Typhoon Data and Search

About IBTrACS Database

This database is a web-friendly format of International Best Track Archive for Climate Stewardship (IBTrACS), a global best track data archive curated by NOAA dating back to 1842.

Updated: 2021-11-26